createdAt,value
2018-11-21T00:01:09.028Z,34.87
2018-11-21T00:03:50.251Z,38.53
2018-11-21T00:06:31.176Z,30.30
2018-11-21T00:09:13.208Z,44.77
2018-11-21T00:11:53.925Z,41.97
2018-11-21T00:14:34.414Z,50.00
2018-11-21T00:17:15.816Z,40.53
2018-11-21T00:19:57.687Z,43.13
2018-11-21T00:22:38.307Z,47.93
2018-11-21T00:25:18.688Z,49.30
2018-11-21T00:27:59.694Z,42.33
2018-11-21T00:30:40.042Z,39.20
2018-11-21T00:33:20.454Z,38.63
2018-11-21T00:36:01.367Z,35.00
2018-11-21T00:38:43.289Z,36.90
2018-11-21T00:41:23.680Z,38.83
2018-11-21T00:44:04.641Z,37.83
2018-11-21T00:46:45.416Z,36.00
2018-11-21T00:49:25.883Z,37.70
2018-11-21T00:52:06.224Z,38.60
2018-11-21T00:54:46.876Z,35.50
2018-11-21T00:57:27.768Z,38.20
2018-11-21T01:00:08.824Z,35.77
2018-11-21T01:02:50.013Z,44.23
2018-11-21T01:05:31.121Z,38.33
2018-11-21T01:08:12.308Z,38.47
2018-11-21T01:10:53.457Z,35.97
2018-11-21T01:13:33.955Z,41.00
2018-11-21T01:16:14.912Z,40.27
2018-11-21T01:18:56.226Z,42.20
2018-11-21T01:21:37.040Z,39.93
2018-11-21T01:24:17.614Z,32.80
2018-11-21T01:26:58.565Z,34.40
2018-11-21T01:29:38.911Z,40.87
2018-11-21T01:32:19.306Z,37.80
2018-11-21T01:35:00.185Z,36.47
2018-11-21T01:37:41.317Z,38.80
2018-11-21T01:40:22.464Z,40.87
2018-11-21T01:43:03.395Z,43.03
2018-11-21T01:45:44.938Z,42.47
2018-11-21T01:48:25.724Z,38.87
2018-11-21T01:51:06.844Z,39.50
2018-11-21T01:53:47.701Z,41.07
2018-11-21T01:56:29.066Z,42.60
2018-11-21T01:59:10.493Z,40.70
2018-11-21T02:01:51.149Z,39.83
2018-11-21T02:04:30.149Z,39.27
2018-11-21T02:07:18.011Z,41.23
2018-11-21T02:10:06.265Z,37.80
2018-11-21T02:12:54.096Z,36.93
2018-11-21T02:15:41.954Z,36.20
2018-11-21T02:21:37.677Z,37.77
2018-11-21T02:24:25.840Z,40.60
2018-11-21T02:27:13.741Z,37.73
2018-11-21T02:30:01.588Z,39.80
2018-11-21T02:32:49.452Z,35.43
2018-11-21T02:35:37.306Z,35.77
2018-11-21T02:38:25.157Z,40.70
2018-11-21T02:41:13.278Z,35.50
2018-11-21T02:44:01.159Z,30.17
2018-11-21T02:46:49.038Z,41.43
2018-11-21T02:49:37.164Z,38.00
2018-11-21T02:52:25.089Z,41.67
2018-11-21T02:55:12.926Z,36.67
2018-11-21T02:58:00.796Z,34.40
2018-11-21T03:00:48.629Z,39.50
2018-11-21T03:06:31.377Z,34.93
2018-11-21T03:09:19.248Z,36.67
2018-11-21T03:12:26.213Z,42.50
2018-11-21T03:15:14.065Z,37.93
2018-11-21T03:18:01.941Z,44.93
2018-11-21T03:20:49.813Z,42.93
2018-11-21T03:26:31.823Z,42.00
2018-11-21T03:29:19.711Z,43.20
2018-11-21T03:32:08.802Z,48.03
2018-11-21T03:34:56.674Z,51.10
2018-11-21T03:40:39.448Z,44.57
2018-11-21T03:43:28.240Z,50.53
2018-11-21T03:46:16.477Z,40.40
2018-11-21T03:49:04.364Z,41.70
2018-11-21T03:51:52.212Z,36.47
2018-11-21T03:54:40.102Z,34.50
2018-11-21T03:57:27.946Z,37.10
2018-11-21T04:00:15.839Z,45.70
2018-11-21T04:06:11.709Z,48.00
2018-11-21T04:08:59.653Z,41.53
2018-11-21T04:11:48.377Z,52.20
2018-11-21T04:14:36.252Z,49.83
2018-11-21T04:17:24.111Z,45.70
2018-11-21T04:20:11.979Z,50.27
2018-11-21T04:22:59.822Z,42.87
2018-11-21T04:25:47.701Z,43.20
2018-11-21T04:28:35.560Z,41.10
2018-11-21T04:31:23.431Z,50.67
2018-11-21T04:34:11.279Z,37.00
2018-11-21T04:36:59.145Z,37.17
2018-11-21T04:39:47.455Z,41.20
2018-11-21T04:42:35.394Z,42.13
2018-11-21T04:45:23.273Z,40.47
2018-11-21T04:48:11.335Z,44.17
2018-11-21T04:50:59.211Z,46.70
2018-11-21T04:53:47.449Z,52.80
2018-11-21T04:59:29.970Z,37.43
2018-11-21T05:02:17.849Z,28.73
2018-11-21T05:05:07.877Z,39.90
2018-11-21T05:07:56.878Z,33.50
2018-11-21T05:10:44.735Z,37.07
2018-11-21T05:13:32.637Z,37.73
2018-11-21T05:16:20.544Z,36.10
2018-11-21T05:19:08.738Z,11.17
2018-11-21T05:21:56.609Z,36.13
2018-11-21T05:24:45.380Z,33.37
2018-11-21T05:27:33.289Z,25.67
2018-11-21T05:30:21.125Z,20.13
2018-11-21T05:33:10.775Z,34.73
2018-11-21T05:35:58.613Z,26.17
2018-11-21T05:38:46.472Z,35.30
2018-11-21T05:44:41.337Z,27.27
2018-11-21T05:47:29.199Z,34.40
2018-11-21T05:50:17.057Z,29.10
2018-11-21T05:55:59.443Z,34.70
2018-11-21T05:58:47.312Z,28.30
2018-11-21T06:01:35.169Z,41.63
2018-11-21T06:04:23.047Z,35.43
2018-11-21T06:07:11.314Z,30.70
2018-11-21T06:09:59.175Z,29.87
2018-11-21T06:12:47.376Z,32.53
2018-11-21T06:15:36.143Z,28.60
2018-11-21T06:18:24.001Z,30.87
2018-11-21T06:21:11.843Z,31.57
2018-11-21T06:23:59.705Z,31.03
2018-11-21T06:27:06.901Z,30.70
2018-11-21T06:29:54.779Z,31.17
2018-11-21T06:32:42.662Z,29.47
2018-11-21T06:35:30.733Z,33.60
2018-11-21T06:38:18.578Z,34.47
2018-11-21T06:41:06.458Z,38.90
2018-11-21T06:43:54.359Z,29.20
2018-11-21T06:46:42.482Z,26.53
2018-11-21T06:49:30.361Z,32.10
2018-11-21T06:52:22.135Z,43.63
2018-11-21T06:55:07.035Z,63.83
2018-11-21T07:01:02.259Z,33.87
2018-11-21T07:03:50.104Z,27.70
2018-11-21T07:06:38.004Z,30.57
2018-11-21T07:09:26.703Z,28.53
2018-11-21T07:12:14.556Z,29.40
2018-11-21T07:15:03.414Z,32.77
2018-11-21T07:17:51.541Z,27.77
2018-11-21T07:20:40.494Z,30.63
2018-11-21T07:23:28.355Z,28.83
2018-11-21T07:26:16.224Z,31.47
2018-11-21T07:29:04.069Z,32.30
2018-11-21T07:31:51.942Z,30.00
2018-11-21T07:34:39.783Z,23.77
2018-11-21T07:37:27.657Z,22.27
2018-11-21T07:40:16.064Z,25.80
2018-11-21T07:43:04.279Z,19.63
2018-11-21T07:45:52.151Z,24.83
2018-11-21T07:48:39.990Z,26.57
2018-11-21T07:51:27.854Z,39.37
2018-11-21T07:54:15.680Z,23.80
2018-11-21T07:57:22.874Z,26.07
2018-11-21T08:00:30.080Z,19.83
2018-11-21T08:03:18.383Z,22.77
2018-11-21T08:06:25.347Z,22.47
2018-11-21T08:09:32.296Z,27.13
2018-11-21T08:12:39.323Z,18.70
2018-11-21T08:15:46.278Z,22.00
2018-11-21T08:18:53.252Z,24.50
2018-11-21T08:22:00.197Z,17.40
2018-11-21T08:25:07.180Z,18.47
2018-11-21T08:28:14.158Z,19.33
2018-11-21T08:31:02.039Z,27.70
2018-11-21T08:33:49.914Z,16.67
2018-11-21T08:36:38.719Z,38.07
2018-11-21T08:39:26.593Z,16.20
2018-11-21T08:42:14.429Z,13.40
2018-11-21T08:45:02.295Z,15.70
2018-11-21T08:47:50.189Z,22.70
2018-11-21T08:50:38.068Z,28.73
2018-11-21T08:53:25.933Z,17.37
2018-11-21T08:56:13.790Z,8.97
2018-11-21T08:59:01.697Z,11.97
2018-11-21T09:01:49.546Z,17.13
2018-11-21T09:04:37.421Z,16.40
2018-11-21T09:07:25.477Z,15.93
2018-11-21T09:10:13.832Z,18.30
2018-11-21T09:13:01.663Z,14.67
2018-11-21T09:18:43.540Z,15.70
2018-11-21T09:21:32.244Z,16.70
2018-11-21T09:24:20.092Z,18.50
2018-11-21T09:27:07.943Z,12.90
2018-11-21T09:29:56.693Z,17.63
2018-11-21T09:32:44.890Z,7.30
2018-11-21T09:35:32.755Z,10.33
2018-11-21T09:38:21.423Z,14.00
2018-11-21T09:41:09.575Z,13.77
2018-11-21T09:43:57.432Z,15.40
2018-11-21T09:46:45.315Z,10.10
2018-11-21T09:49:33.179Z,13.73
2018-11-21T09:52:21.350Z,15.20
2018-11-21T09:55:09.264Z,7.93
2018-11-21T09:57:57.135Z,15.47
2018-11-21T10:01:04.345Z,16.73
2018-11-21T10:06:53.269Z,9.50
2018-11-21T10:09:36.712Z,10.33
2018-11-21T10:12:18.615Z,12.30
2018-11-21T10:14:57.590Z,17.40
2018-11-21T10:17:46.319Z,21.30
2018-11-21T10:20:34.153Z,15.90
2018-11-21T10:23:22.018Z,11.70
2018-11-21T10:26:09.902Z,10.93
2018-11-21T10:28:57.843Z,11.70
2018-11-21T10:31:45.712Z,16.83
2018-11-21T10:34:33.711Z,21.77
2018-11-21T10:37:22.510Z,11.87
2018-11-21T10:40:10.732Z,11.63
2018-11-21T10:42:58.597Z,7.90
2018-11-21T10:45:46.440Z,7.20
2018-11-21T10:48:34.310Z,12.53
2018-11-21T10:51:22.140Z,8.43
2018-11-21T10:54:10.225Z,9.90
2018-11-21T10:56:58.148Z,11.97
2018-11-21T10:59:46.124Z,20.43
2018-11-21T11:02:53.096Z,9.37
2018-11-21T11:06:00.048Z,5.63
2018-11-21T11:09:07.026Z,5.17
2018-11-21T11:12:13.972Z,12.13
2018-11-21T11:15:20.950Z,20.97
2018-11-21T11:18:27.936Z,13.43
2018-11-21T11:21:35.746Z,11.40
2018-11-21T11:24:42.735Z,12.30
2018-11-21T11:27:49.704Z,15.40
2018-11-21T11:30:56.679Z,11.17
2018-11-21T11:34:03.635Z,7.57
2018-11-21T11:37:10.568Z,8.43
2018-11-21T11:40:17.547Z,10.23
2018-11-21T11:43:24.632Z,9.43
2018-11-21T11:46:31.568Z,9.63
2018-11-21T11:49:38.538Z,4.67
2018-11-21T11:52:45.479Z,9.37
2018-11-21T11:55:52.456Z,5.17
2018-11-21T11:58:59.442Z,8.53
2018-11-21T12:02:06.414Z,12.03
2018-11-21T12:05:13.367Z,9.93
2018-11-21T12:08:20.308Z,7.33
2018-11-21T12:11:27.281Z,8.00
2018-11-21T12:14:34.227Z,12.37
2018-11-21T12:17:41.207Z,19.90
2018-11-21T12:20:48.176Z,11.13
2018-11-21T12:23:55.148Z,5.30
2018-11-21T12:27:02.116Z,11.57
2018-11-21T12:30:09.062Z,15.97
2018-11-21T12:33:16.060Z,11.30
2018-11-21T12:36:23.035Z,12.63
2018-11-21T12:39:29.998Z,15.13
2018-11-21T12:42:36.986Z,13.17
2018-11-21T12:45:44.096Z,12.63
2018-11-21T12:48:51.095Z,8.47
2018-11-21T12:51:58.358Z,12.50
2018-11-21T12:55:05.292Z,9.20
2018-11-21T12:58:12.258Z,9.20
2018-11-21T13:01:19.216Z,13.20
2018-11-21T13:04:26.487Z,9.13
2018-11-21T13:07:33.458Z,12.20
2018-11-21T13:10:40.400Z,15.47
2018-11-21T13:13:47.377Z,10.33
2018-11-21T13:16:47.284Z,10.57
2018-11-21T13:19:54.233Z,14.40
2018-11-21T13:22:50.599Z,13.17
2018-11-21T13:25:57.573Z,15.20
2018-11-21T13:29:04.554Z,9.43
2018-11-21T13:32:11.492Z,9.90
2018-11-21T13:35:18.495Z,14.10
2018-11-21T13:38:25.575Z,21.67
2018-11-21T13:41:32.523Z,12.00
2018-11-21T13:44:39.504Z,11.77
2018-11-21T13:47:46.467Z,14.70
2018-11-21T13:50:53.521Z,10.50
2018-11-21T13:54:00.491Z,13.37
2018-11-21T13:56:49.967Z,14.20
2018-11-21T13:59:37.875Z,4.20
2018-11-21T14:02:25.745Z,12.67
2018-11-21T14:05:13.619Z,10.50
2018-11-21T14:08:01.469Z,13.17
2018-11-21T14:10:49.334Z,13.93
2018-11-21T14:13:37.179Z,14.37
2018-11-21T14:16:25.090Z,13.30
2018-11-21T14:22:20.868Z,8.67
2018-11-21T14:25:09.856Z,9.13
2018-11-21T14:27:57.695Z,11.70
2018-11-21T14:30:45.570Z,10.77
2018-11-21T14:33:33.535Z,10.53
2018-11-21T14:36:21.410Z,12.53
2018-11-21T14:39:10.128Z,12.03
2018-11-21T14:41:58.033Z,12.87
2018-11-21T14:44:45.933Z,12.20
2018-11-21T14:47:33.792Z,17.20
2018-11-21T14:50:22.677Z,14.87
2018-11-21T14:53:11.702Z,16.90
2018-11-21T14:55:59.558Z,13.07
2018-11-21T14:58:47.396Z,13.33
2018-11-21T15:01:35.296Z,11.40
2018-11-21T15:04:24.004Z,13.47
2018-11-21T15:07:12.088Z,12.17
2018-11-21T15:10:01.727Z,12.97
2018-11-21T15:12:49.617Z,13.20
2018-11-21T15:15:19.436Z,13.23
2018-11-21T15:18:07.299Z,9.20
2018-11-21T15:20:55.130Z,12.13
2018-11-21T15:23:43.284Z,8.87
2018-11-21T15:26:32.148Z,10.50
2018-11-21T15:29:20.911Z,11.57
2018-11-21T15:32:08.789Z,15.40
2018-11-21T15:34:56.624Z,15.57
2018-11-21T15:37:44.857Z,14.37
2018-11-21T15:40:32.703Z,16.67
2018-11-21T15:43:21.434Z,21.10
2018-11-21T15:46:10.479Z,26.33
2018-11-21T15:48:58.332Z,18.23
2018-11-21T15:51:47.052Z,13.83
2018-11-21T15:54:35.297Z,16.40
2018-11-21T15:57:23.127Z,13.40
2018-11-21T16:00:13.152Z,15.30
2018-11-21T16:03:02.950Z,18.37
2018-11-21T16:05:50.817Z,12.30
2018-11-21T16:08:38.697Z,13.27
2018-11-21T16:11:26.811Z,14.37
2018-11-21T16:14:14.710Z,14.33
2018-11-21T16:17:02.545Z,23.70
2018-11-21T16:19:50.689Z,19.93
2018-11-21T16:22:39.399Z,16.77
2018-11-21T16:25:27.325Z,16.53
2018-11-21T16:31:23.591Z,15.33
2018-11-21T16:34:11.433Z,17.20
2018-11-21T16:36:59.267Z,23.13
2018-11-21T16:39:47.112Z,22.83
2018-11-21T16:42:34.977Z,16.17
2018-11-21T16:45:24.656Z,16.47
2018-11-21T16:48:12.540Z,18.70
2018-11-21T16:51:00.390Z,18.53
2018-11-21T16:53:49.048Z,16.40
2018-11-21T16:56:36.905Z,16.67
2018-11-21T16:59:25.630Z,20.40
2018-11-21T17:02:13.520Z,24.63
2018-11-21T17:07:55.145Z,17.23
2018-11-21T17:10:43.277Z,22.53
2018-11-21T17:13:31.124Z,17.87
2018-11-21T17:16:18.976Z,15.70
2018-11-21T17:19:07.115Z,19.93
2018-11-21T17:21:55.830Z,22.90
2018-11-21T17:24:43.688Z,13.93
2018-11-21T17:27:31.579Z,24.33
2018-11-21T17:30:20.755Z,20.53
2018-11-21T17:36:17.130Z,14.40
2018-11-21T17:39:07.518Z,15.80
2018-11-21T17:41:55.375Z,13.73
2018-11-21T17:44:43.645Z,15.30
2018-11-21T17:47:31.451Z,17.70
2018-11-21T17:55:50.655Z,19.30
2018-11-21T17:58:38.500Z,15.97
2018-11-21T18:01:26.375Z,19.03
2018-11-21T18:04:14.200Z,22.43
2018-11-21T18:07:02.917Z,12.03
2018-11-21T18:09:50.765Z,12.83
2018-11-21T18:12:38.741Z,13.10
2018-11-21T18:15:26.628Z,16.50
2018-11-21T18:18:14.452Z,15.80
2018-11-21T18:21:02.306Z,17.47
2018-11-21T18:23:50.439Z,14.40
2018-11-21T18:26:38.512Z,16.50
2018-11-21T18:29:26.657Z,12.63
2018-11-21T18:32:14.521Z,17.93
2018-11-21T18:35:02.372Z,15.17
2018-11-21T18:37:51.121Z,14.13
2018-11-21T18:40:38.952Z,12.60
2018-11-21T18:43:26.817Z,12.10
2018-11-21T18:46:14.678Z,10.87
2018-11-21T18:49:03.431Z,16.07
2018-11-21T18:51:51.287Z,11.07
2018-11-21T18:54:39.131Z,12.23
2018-11-21T18:57:47.159Z,9.37
2018-11-21T19:00:35.513Z,10.67
2018-11-21T19:03:23.493Z,13.07
2018-11-21T19:06:11.660Z,12.23
2018-11-21T19:08:59.552Z,12.57
2018-11-21T19:11:47.406Z,15.00
2018-11-21T19:14:35.243Z,10.67
2018-11-21T19:17:23.116Z,14.43
2018-11-21T19:23:19.967Z,12.60
2018-11-21T19:26:08.648Z,17.73
2018-11-21T19:28:57.687Z,30.50
2018-11-21T19:31:45.508Z,17.03
2018-11-21T19:34:33.360Z,16.90
2018-11-21T19:40:16.147Z,19.03
2018-11-21T19:43:04.009Z,16.10
2018-11-21T19:45:52.700Z,16.73
2018-11-21T19:48:40.556Z,12.20
2018-11-21T19:51:28.764Z,14.83
2018-11-21T19:54:17.479Z,13.67
2018-11-21T19:57:06.169Z,13.00
2018-11-21T19:59:54.025Z,14.17
2018-11-21T20:02:41.934Z,14.67
2018-11-21T20:05:29.820Z,16.97
2018-11-21T20:08:17.683Z,18.27
2018-11-21T20:11:05.676Z,12.00
2018-11-21T20:13:53.528Z,12.77
2018-11-21T20:16:41.362Z,14.33
2018-11-21T20:19:29.236Z,14.00
